createdAt,value
2023-03-06T00:01:09.838Z,34.83
2023-03-06T00:03:57.628Z,36.50
2023-03-06T00:06:45.232Z,39.30
2023-03-06T00:09:32.521Z,39.88
2023-03-06T00:12:19.710Z,35.03
2023-03-06T00:15:07.696Z,37.28
2023-03-06T00:17:55.975Z,37.15
2023-03-06T00:20:44.191Z,40.22
2023-03-06T00:23:31.408Z,42.17
2023-03-06T00:26:18.796Z,37.17
2023-03-06T00:29:06.417Z,42.33
2023-03-06T00:31:53.816Z,42.28
2023-03-06T00:34:41.126Z,39.05
2023-03-06T00:37:28.335Z,35.85
2023-03-06T00:40:19.690Z,39.38
2023-03-06T00:43:06.874Z,40.00
2023-03-06T00:45:54.089Z,42.33
2023-03-06T00:48:41.323Z,34.05
2023-03-06T00:51:28.634Z,35.47
2023-03-06T00:54:15.816Z,32.00
2023-03-06T00:57:03.329Z,37.88
2023-03-06T00:59:50.805Z,39.08
2023-03-06T01:02:38.276Z,35.08
2023-03-06T01:05:25.843Z,41.78
2023-03-06T01:08:13.161Z,39.20
2023-03-06T01:11:00.462Z,39.90
2023-03-06T01:13:47.604Z,38.50
2023-03-06T01:16:34.882Z,35.33
2023-03-06T01:19:22.098Z,37.72
2023-03-06T01:22:09.412Z,37.97
2023-03-06T01:24:56.628Z,34.55
2023-03-06T01:27:43.907Z,41.08
2023-03-06T01:30:31.196Z,35.03
2023-03-06T01:33:18.606Z,36.00
2023-03-06T01:36:08.182Z,35.63
2023-03-06T01:38:55.346Z,37.70
2023-03-06T01:41:42.641Z,35.40
2023-03-06T01:44:30.233Z,32.67
2023-03-06T01:47:17.415Z,31.98
2023-03-06T01:50:08.673Z,29.38
2023-03-06T01:52:59.597Z,37.50
2023-03-06T01:55:46.924Z,28.73
2023-03-06T01:58:34.742Z,32.67
2023-03-06T02:01:22.156Z,33.38
2023-03-06T02:04:10.697Z,32.15
2023-03-06T02:07:01.168Z,28.67
2023-03-06T02:09:51.722Z,29.85
2023-03-06T02:12:43.760Z,27.17
2023-03-06T02:15:31.150Z,30.10
2023-03-06T02:18:18.452Z,31.05
2023-03-06T02:21:08.529Z,32.38
2023-03-06T02:24:19.692Z,30.95
2023-03-06T02:27:09.809Z,34.60
2023-03-06T02:29:58.281Z,32.38
2023-03-06T02:32:45.870Z,31.55
2023-03-06T02:35:38.531Z,30.27
2023-03-06T02:38:30.285Z,30.42
2023-03-06T02:41:17.875Z,29.27
2023-03-06T02:44:07.158Z,28.60
2023-03-06T02:46:55.504Z,26.98
2023-03-06T02:49:42.919Z,27.08
2023-03-06T02:52:30.450Z,25.20
2023-03-06T02:55:18.071Z,31.25
2023-03-06T02:58:05.714Z,35.17
2023-03-06T03:00:53.116Z,29.05
2023-03-06T03:03:42.650Z,25.73
2023-03-06T03:06:30.568Z,24.85
2023-03-06T03:09:18.352Z,25.08
2023-03-06T03:12:07.239Z,26.25
2023-03-06T03:14:57.710Z,28.48
2023-03-06T03:17:45.078Z,27.33
2023-03-06T03:20:32.355Z,27.60
2023-03-06T03:23:19.515Z,27.35
2023-03-06T03:26:13.080Z,28.17
2023-03-06T03:29:05.205Z,26.52
2023-03-06T03:31:52.623Z,28.15
2023-03-06T03:34:40.442Z,26.50
2023-03-06T03:37:27.775Z,23.75
2023-03-06T03:40:15.060Z,24.65
2023-03-06T03:43:02.358Z,38.10
2023-03-06T03:45:50.236Z,24.35
2023-03-06T03:48:37.836Z,26.20
2023-03-06T03:51:26.273Z,25.17
2023-03-06T03:54:17.115Z,22.63
2023-03-06T03:57:07.441Z,23.65
2023-03-06T03:59:58.878Z,29.48
2023-03-06T04:03:01.213Z,28.15
2023-03-06T04:05:58.205Z,19.95
2023-03-06T04:08:46.291Z,60.35
2023-03-06T04:11:33.862Z,21.65
2023-03-06T04:14:22.075Z,23.05
2023-03-06T04:17:09.258Z,22.55
2023-03-06T04:19:56.676Z,21.17
2023-03-06T04:22:44.140Z,23.48
2023-03-06T04:25:32.789Z,23.65
2023-03-06T04:28:22.559Z,26.00
2023-03-06T04:31:12.343Z,21.45
2023-03-06T04:34:00.709Z,22.15
2023-03-06T04:36:48.390Z,23.88
2023-03-06T04:39:37.606Z,23.60
2023-03-06T04:42:26.376Z,21.83
2023-03-06T04:45:14.236Z,20.45
2023-03-06T04:48:02.085Z,21.67
2023-03-06T04:50:49.293Z,22.40
2023-03-06T04:53:37.257Z,21.30
2023-03-06T04:56:25.721Z,20.48
2023-03-06T04:59:12.941Z,21.42
2023-03-06T05:02:00.203Z,464.67
2023-03-06T05:04:47.356Z,63.55
2023-03-06T05:07:34.802Z,20.13
2023-03-06T05:10:22.074Z,57.50
2023-03-06T05:13:09.581Z,18.88
2023-03-06T05:16:02.093Z,20.85
2023-03-06T05:18:50.696Z,18.33
2023-03-06T05:21:38.921Z,61.08
2023-03-06T05:24:26.386Z,20.27
2023-03-06T05:27:15.798Z,18.63
2023-03-06T05:30:04.541Z,21.05
2023-03-06T05:32:51.855Z,21.52
2023-03-06T05:35:39.082Z,21.77
2023-03-06T05:38:26.632Z,19.05
2023-03-06T05:41:14.088Z,1999.90
2023-03-06T05:44:03.550Z,815.15
2023-03-06T05:46:50.957Z,1999.90
2023-03-06T05:49:38.617Z,1999.90
2023-03-06T05:52:25.865Z,1999.90
2023-03-06T05:55:13.414Z,1999.90
2023-03-06T05:58:00.620Z,1999.90
2023-03-06T06:00:47.764Z,1999.90
2023-03-06T06:03:34.955Z,1999.90
2023-03-06T06:06:22.328Z,1999.90
2023-03-06T06:09:11.684Z,1999.90
2023-03-06T06:12:02.607Z,1999.90
2023-03-06T06:14:49.774Z,1445.68
2023-03-06T06:17:36.996Z,1999.90
2023-03-06T06:20:25.222Z,1999.90
2023-03-06T06:23:12.456Z,183.98
2023-03-06T06:26:01.559Z,15.20
2023-03-06T06:28:48.744Z,13.35
2023-03-06T06:31:38.924Z,18.92
2023-03-06T06:34:26.479Z,17.45
2023-03-06T06:37:13.700Z,15.00
2023-03-06T06:40:00.917Z,15.10
2023-03-06T06:42:48.084Z,14.90
2023-03-06T06:45:35.409Z,16.35
2023-03-06T06:48:22.765Z,15.55
2023-03-06T06:51:09.940Z,14.75
2023-03-06T06:53:58.523Z,15.27
2023-03-06T06:56:45.734Z,14.98
2023-03-06T06:59:32.864Z,15.40
2023-03-06T07:02:20.084Z,16.35
2023-03-06T07:05:08.093Z,17.73
2023-03-06T07:07:55.209Z,18.45
2023-03-06T07:10:42.714Z,12.38
2023-03-06T07:13:29.961Z,14.77
2023-03-06T07:16:17.594Z,15.27
2023-03-06T07:19:04.780Z,14.10
2023-03-06T07:21:51.949Z,13.20
2023-03-06T07:24:39.122Z,13.88
2023-03-06T07:27:26.549Z,15.75
2023-03-06T07:30:14.082Z,14.20
2023-03-06T07:33:03.776Z,12.48
2023-03-06T07:35:51.338Z,14.73
2023-03-06T07:38:38.558Z,11.45
2023-03-06T07:41:26.647Z,10.70
2023-03-06T07:44:14.016Z,14.75
2023-03-06T07:47:01.303Z,11.38
2023-03-06T07:49:48.745Z,10.68
2023-03-06T07:52:36.069Z,10.38
2023-03-06T07:55:23.390Z,11.25
2023-03-06T07:58:11.711Z,11.88
2023-03-06T08:01:03.612Z,11.23
2023-03-06T08:03:51.595Z,11.35
2023-03-06T08:06:38.814Z,12.75
2023-03-06T08:09:26.222Z,8.63
2023-03-06T08:12:15.141Z,13.55
2023-03-06T08:15:03.608Z,12.85
2023-03-06T08:17:51.215Z,14.18
2023-03-06T08:20:38.349Z,13.63
2023-03-06T08:23:25.500Z,16.83
2023-03-06T08:26:15.710Z,13.55
2023-03-06T08:29:04.528Z,14.57
2023-03-06T08:31:51.798Z,11.43
2023-03-06T08:34:41.089Z,16.75
2023-03-06T08:37:28.291Z,14.18
2023-03-06T08:40:15.611Z,15.50
2023-03-06T08:43:03.785Z,15.45
2023-03-06T08:45:54.941Z,14.70
2023-03-06T08:48:42.367Z,13.77
2023-03-06T08:51:29.857Z,16.63
2023-03-06T08:54:17.081Z,17.83
2023-03-06T08:57:04.309Z,16.17
2023-03-06T08:59:51.456Z,17.17
2023-03-06T09:02:38.896Z,15.95
2023-03-06T09:05:26.651Z,14.60
2023-03-06T09:08:13.834Z,21.65
2023-03-06T09:11:01.011Z,30.92
2023-03-06T09:13:48.405Z,19.13
2023-03-06T09:16:35.656Z,15.55
2023-03-06T09:19:23.189Z,16.23
2023-03-06T09:22:10.942Z,17.92
2023-03-06T09:24:58.348Z,14.07
2023-03-06T09:27:55.468Z,19.20
2023-03-06T09:30:50.128Z,15.05
2023-03-06T09:33:38.019Z,18.05
2023-03-06T09:36:25.221Z,15.63
2023-03-06T09:39:12.686Z,17.90
2023-03-06T09:41:59.934Z,16.67
2023-03-06T09:44:52.547Z,14.00
2023-03-06T09:47:55.479Z,17.25
2023-03-06T09:51:22.775Z,13.75
2023-03-06T09:54:14.856Z,19.08
2023-03-06T09:57:03.030Z,20.40
2023-03-06T09:59:57.491Z,16.25
2023-03-06T10:02:48.711Z,14.60
2023-03-06T10:08:46.758Z,14.20
2023-03-06T10:11:39.699Z,16.95
2023-03-06T10:14:35.190Z,15.73
2023-03-06T10:17:26.101Z,15.73
2023-03-06T10:20:24.252Z,18.27
2023-03-06T10:23:32.502Z,12.80
2023-03-06T10:26:26.602Z,13.68
2023-03-06T10:29:22.736Z,18.63
2023-03-06T10:32:20.850Z,18.08
2023-03-06T10:35:16.128Z,11.43
2023-03-06T10:38:29.959Z,15.05
2023-03-06T10:41:24.682Z,12.60
2023-03-06T10:44:11.803Z,12.38
2023-03-06T10:46:59.316Z,15.63
2023-03-06T10:49:57.634Z,12.35
2023-03-06T10:52:44.895Z,14.23
2023-03-06T10:55:37.008Z,13.52
2023-03-06T10:58:32.663Z,17.23
2023-03-06T11:01:22.397Z,15.05
2023-03-06T11:04:35.257Z,11.88
2023-03-06T11:07:28.246Z,14.50
2023-03-06T11:10:20.339Z,14.60
2023-03-06T11:13:29.073Z,12.70
2023-03-06T11:16:26.062Z,13.55
2023-03-06T11:19:30.230Z,8.95
2023-03-06T11:22:19.812Z,13.00
2023-03-06T11:25:13.366Z,14.23
2023-03-06T11:28:06.170Z,11.27
2023-03-06T11:31:20.074Z,15.27
2023-03-06T11:34:14.346Z,13.82
2023-03-06T11:37:07.169Z,14.32
2023-03-06T11:40:09.511Z,12.68
2023-03-06T11:43:14.573Z,13.57
2023-03-06T11:46:21.582Z,14.13
2023-03-06T11:49:34.996Z,18.63
2023-03-06T11:52:34.697Z,10.13
2023-03-06T11:55:56.158Z,14.77
2023-03-06T11:58:56.359Z,10.38
2023-03-06T12:02:02.048Z,10.65
2023-03-06T12:05:10.834Z,11.18
2023-03-06T12:08:07.078Z,12.38
2023-03-06T12:11:01.241Z,10.88
2023-03-06T12:14:20.551Z,13.63
2023-03-06T12:17:17.093Z,15.38
2023-03-06T12:20:40.126Z,12.50
2023-03-06T12:23:36.764Z,11.55
2023-03-06T12:26:38.930Z,13.70
2023-03-06T12:29:57.599Z,9.82
2023-03-06T12:33:22.250Z,9.27
2023-03-06T12:36:41.980Z,9.52
2023-03-06T12:39:47.797Z,13.80
2023-03-06T12:42:54.145Z,12.65
2023-03-06T12:45:44.261Z,11.90
2023-03-06T12:48:36.431Z,13.70
2023-03-06T12:51:24.597Z,12.85
2023-03-06T12:54:17.187Z,14.38
2023-03-06T12:57:08.449Z,13.15
2023-03-06T12:59:55.699Z,13.40
2023-03-06T13:02:54.043Z,15.15
2023-03-06T13:06:00.911Z,23.35
2023-03-06T13:09:03.185Z,17.73
2023-03-06T13:12:18.275Z,10.65
2023-03-06T13:15:36.747Z,15.70
2023-03-06T13:18:24.014Z,13.23
2023-03-06T13:22:00.304Z,14.48
2023-03-06T13:24:48.324Z,12.77
2023-03-06T13:27:54.968Z,13.30
2023-03-06T13:30:45.780Z,12.25
2023-03-06T13:33:34.357Z,12.07
2023-03-06T13:36:33.252Z,12.38
2023-03-06T13:39:20.387Z,11.30
2023-03-06T13:42:24.561Z,11.15
2023-03-06T13:45:38.729Z,9.43
2023-03-06T13:48:44.815Z,11.13
2023-03-06T13:51:39.078Z,12.70
2023-03-06T13:54:41.605Z,10.43
2023-03-06T13:57:59.430Z,9.77
2023-03-06T14:01:24.224Z,11.68
2023-03-06T14:04:36.181Z,11.25
2023-03-06T14:07:26.207Z,8.00
2023-03-06T14:10:13.387Z,13.90
2023-03-06T14:13:04.241Z,11.18
2023-03-06T14:15:54.278Z,13.98
2023-03-06T14:18:46.471Z,14.02
2023-03-06T14:21:47.708Z,13.85
2023-03-06T14:24:40.656Z,13.93
2023-03-06T14:27:39.635Z,11.18
2023-03-06T14:30:27.027Z,12.55
2023-03-06T14:33:39.466Z,13.80
2023-03-06T14:36:43.088Z,14.32
2023-03-06T14:39:44.117Z,11.50
2023-03-06T14:42:32.079Z,10.95
2023-03-06T14:45:19.737Z,9.45
2023-03-06T14:48:06.938Z,10.10
2023-03-06T14:50:56.099Z,11.10
2023-03-06T14:53:45.127Z,11.40
2023-03-06T14:56:36.139Z,13.45
2023-03-06T14:59:28.595Z,15.27
2023-03-06T15:02:23.437Z,12.15
2023-03-06T15:05:23.667Z,12.25
2023-03-06T15:08:16.635Z,11.60
2023-03-06T15:11:06.035Z,9.60
2023-03-06T15:14:03.861Z,10.23
2023-03-06T15:16:51.167Z,7.47
2023-03-06T15:19:40.808Z,8.15
2023-03-06T15:22:43.836Z,8.13
2023-03-06T15:25:31.502Z,14.38
2023-03-06T15:28:31.225Z,11.80
2023-03-06T15:31:28.122Z,9.55
2023-03-06T15:34:18.454Z,11.30
2023-03-06T15:37:25.886Z,10.50
2023-03-06T15:40:21.155Z,8.82
2023-03-06T15:43:10.643Z,12.38
2023-03-06T15:46:00.450Z,12.50
2023-03-06T15:49:00.294Z,12.45
2023-03-06T15:51:48.940Z,10.32
2023-03-06T15:54:36.816Z,11.50
2023-03-06T15:57:26.632Z,8.02
2023-03-06T16:00:27.368Z,9.93
2023-03-06T16:03:15.388Z,9.18
2023-03-06T16:06:02.622Z,11.82
2023-03-06T16:08:50.880Z,11.07
2023-03-06T16:11:44.311Z,15.70
2023-03-06T16:14:33.160Z,8.65
2023-03-06T16:17:20.814Z,9.43
2023-03-06T16:20:14.704Z,9.23
2023-03-06T16:23:07.980Z,10.18
2023-03-06T16:25:56.107Z,10.70
2023-03-06T16:28:44.604Z,8.38
2023-03-06T16:31:31.830Z,12.02
2023-03-06T16:34:21.987Z,13.60
2023-03-06T16:37:15.838Z,11.93
2023-03-06T16:40:07.210Z,9.32
2023-03-06T16:42:55.457Z,14.23
2023-03-06T16:45:43.528Z,15.75
2023-03-06T16:48:33.913Z,13.77
2023-03-06T16:51:23.204Z,12.63
2023-03-06T16:54:11.760Z,9.98
2023-03-06T16:57:04.931Z,10.43
2023-03-06T16:59:58.406Z,10.93
2023-03-06T17:02:49.147Z,14.43
2023-03-06T17:05:40.270Z,11.68
2023-03-06T17:08:27.906Z,14.13
2023-03-06T17:11:16.200Z,13.80
2023-03-06T17:14:03.723Z,11.43
2023-03-06T17:16:51.150Z,10.93
2023-03-06T17:19:38.571Z,9.57
2023-03-06T17:22:26.413Z,7.28
2023-03-06T17:25:13.682Z,7.43
2023-03-06T17:28:00.908Z,4.63
2023-03-06T17:30:48.278Z,5.57
2023-03-06T17:33:35.597Z,10.93
2023-03-06T17:36:23.109Z,4.70
2023-03-06T17:39:10.259Z,17.30
2023-03-06T17:41:57.524Z,48.88
2023-03-06T17:44:44.733Z,5.95
2023-03-06T17:47:31.896Z,3.92
2023-03-06T17:50:19.381Z,4.85
2023-03-06T17:53:06.520Z,4.07
2023-03-06T17:55:54.544Z,4.75
2023-03-06T17:58:41.802Z,7.32
2023-03-06T18:01:30.163Z,4.47
2023-03-06T18:04:17.386Z,5.00
2023-03-06T18:07:04.909Z,7.72
2023-03-06T18:09:52.289Z,2.90
2023-03-06T18:12:39.638Z,5.53
2023-03-06T18:15:27.105Z,4.63
2023-03-06T18:18:14.722Z,3.92
2023-03-06T18:21:06.575Z,4.90
2023-03-06T18:23:53.857Z,4.07
2023-03-06T18:26:44.135Z,5.20
2023-03-06T18:29:31.354Z,5.30
2023-03-06T18:32:19.045Z,4.60
2023-03-06T18:35:06.662Z,8.25
2023-03-06T18:37:54.132Z,4.93
2023-03-06T18:40:41.832Z,11.32
2023-03-06T18:43:29.264Z,99.32
2023-03-06T18:46:16.412Z,1999.90
2023-03-06T18:49:05.144Z,1999.90
2023-03-06T18:51:52.393Z,1999.90
2023-03-06T18:54:39.757Z,1999.90
2023-03-06T18:57:28.726Z,1999.90
2023-03-06T19:00:18.008Z,1999.90
2023-03-06T19:03:05.200Z,1999.90
2023-03-06T19:05:52.470Z,1999.90
2023-03-06T19:08:40.781Z,1999.90
2023-03-06T19:11:28.100Z,1999.90
2023-03-06T19:14:15.581Z,1999.90
2023-03-06T19:17:03.097Z,1999.90
2023-03-06T19:19:51.404Z,1999.90
2023-03-06T19:22:38.635Z,1999.90
2023-03-06T19:25:25.880Z,1999.90
2023-03-06T19:28:13.174Z,1999.90
2023-03-06T19:31:06.912Z,1999.90
2023-03-06T19:33:56.642Z,1999.90
2023-03-06T19:36:45.747Z,1999.90
2023-03-06T19:39:32.992Z,1999.90
2023-03-06T19:42:20.366Z,1999.90
2023-03-06T19:45:08.300Z,1999.90
2023-03-06T19:48:00.652Z,1999.90
2023-03-06T19:50:47.812Z,1999.90
2023-03-06T19:53:38.790Z,1999.90
2023-03-06T19:56:29.049Z,1999.90
2023-03-06T19:59:16.833Z,1999.90
2023-03-06T20:02:04.195Z,1999.90
2023-03-06T20:05:09.316Z,1999.90
2023-03-06T20:07:56.649Z,1999.90
2023-03-06T20:10:44.227Z,1999.90
2023-03-06T20:13:31.686Z,1999.90
2023-03-06T20:16:19.266Z,1999.90
2023-03-06T20:19:11.289Z,1999.90
2023-03-06T20:21:58.508Z,1999.90
2023-03-06T20:24:45.903Z,1999.90
2023-03-06T20:27:43.851Z,1999.90
2023-03-06T20:30:37.797Z,1999.90
2023-03-06T20:33:26.713Z,1999.90
2023-03-06T20:36:28.996Z,1999.90
2023-03-06T20:39:18.525Z,1999.90
2023-03-06T20:42:06.134Z,1999.90
2023-03-06T20:44:53.456Z,1999.90
2023-03-06T20:47:46.797Z,1999.90
2023-03-06T20:50:34.032Z,1999.90
2023-03-06T20:53:21.279Z,1999.90
2023-03-06T20:56:13.782Z,1999.90
2023-03-06T20:59:01.962Z,1999.90
2023-03-06T21:01:49.263Z,1999.90
2023-03-06T21:04:41.168Z,1999.90
2023-03-06T21:07:32.768Z,1999.90
2023-03-06T21:10:19.934Z,1999.90
2023-03-06T21:13:07.696Z,1999.90
2023-03-06T21:15:54.974Z,1999.90
2023-03-06T21:18:42.342Z,1999.90
2023-03-06T21:21:33.076Z,1999.90
2023-03-06T21:24:30.907Z,1999.90
2023-03-06T21:27:18.323Z,1999.90
2023-03-06T21:30:10.652Z,1999.90
2023-03-06T21:32:58.160Z,1999.90
2023-03-06T21:39:08.542Z,1999.90
2023-03-06T21:41:58.102Z,1999.90
2023-03-06T21:44:45.938Z,1999.90
2023-03-06T21:47:44.447Z,1999.90
2023-03-06T21:50:31.632Z,1999.90
2023-03-06T21:53:19.266Z,1999.90
2023-03-06T21:56:07.009Z,1999.90
2023-03-06T21:58:55.345Z,1999.90
2023-03-06T22:01:42.793Z,1999.90
2023-03-06T22:04:30.328Z,1999.90
2023-03-06T22:07:17.817Z,1999.90
2023-03-06T22:10:06.734Z,1999.90
2023-03-06T22:12:54.106Z,1999.90
2023-03-06T22:15:52.192Z,1999.90
2023-03-06T22:18:39.890Z,1999.90
2023-03-06T22:21:27.201Z,1999.90
2023-03-06T22:24:14.744Z,1999.90
2023-03-06T22:27:02.012Z,1999.90
2023-03-06T22:29:53.296Z,1999.90
2023-03-06T22:32:40.540Z,1999.90
2023-03-06T22:35:28.138Z,1999.90
2023-03-06T22:38:16.052Z,1999.90
2023-03-06T22:41:04.545Z,1999.90
2023-03-06T22:43:51.870Z,1999.90
2023-03-06T22:46:39.014Z,1999.90
2023-03-06T22:49:26.272Z,1999.90
2023-03-06T22:52:15.196Z,1999.90
2023-03-06T22:55:02.586Z,1999.90
2023-03-06T22:57:49.773Z,1999.90
2023-03-06T23:00:37.540Z,1999.90
2023-03-06T23:03:25.177Z,1999.90
2023-03-06T23:06:16.246Z,1999.90
2023-03-06T23:09:05.928Z,1999.90
2023-03-06T23:12:12.054Z,1999.90
2023-03-06T23:15:18.105Z,1999.90
2023-03-06T23:18:24.163Z,1999.90
2023-03-06T23:21:29.980Z,1999.90
2023-03-06T23:24:36.797Z,1999.90
2023-03-06T23:27:24.065Z,1999.90
2023-03-06T23:30:12.191Z,1999.90
2023-03-06T23:32:59.394Z,1999.90
2023-03-06T23:35:46.753Z,1999.90
2023-03-06T23:38:34.486Z,1999.90
2023-03-06T23:41:22.576Z,1999.90
2023-03-06T23:44:09.797Z,1999.90
2023-03-06T23:46:57.054Z,1999.90
2023-03-06T23:49:44.301Z,1999.90
2023-03-06T23:52:31.468Z,1999.90
2023-03-06T23:55:19.076Z,1999.90
2023-03-06T23:58:06.296Z,1999.90
